Time;durP1;ratioP1;P1;durP2;ratioP2;P2;SDS_P1;SDS_P2;PMS_P1;PMS_P2;Temp;Humidity;BMP_temperature;BMP_pressure;BME280_temperature;BME280_humidity;BME280_pressure;Samples;Min_cycle;Max_cycle;Signal;HPM_P1;HPM_P2
2023/07/01 00:00:51;;;;;;;;;;;;;;;22.38;43.50;100781.66;4132446;28;19929;-68
2023/07/01 00:02:53;;;;;;;;;;;;;;;22.37;44.06;100777.25;4132971;28;20281;-68
2023/07/01 00:04:54;;;;;;;;;;;;;;;22.37;43.60;100790.66;4133182;28;20299;-67
2023/07/01 00:06:56;;;;;;;;;;;;;;;22.38;43.77;100787.00;4132860;28;19930;-67
2023/07/01 00:08:58;;;;;;;;;;;;;;;22.36;43.71;100776.44;4132054;28;19925;-67
2023/07/01 00:11:00;;;;;;;;;;;;;;;22.35;43.37;100777.41;4132081;28;19929;-67
2023/07/01 00:13:02;;;;;;;;;;;;;;;22.37;43.40;100779.94;4133031;28;19929;-67
2023/07/01 00:15:04;;;;;;;;;;;;;;;22.35;44.23;100774.72;4133105;28;19933;-67
2023/07/01 00:17:09;;;;;;;;;;;;;;;22.33;43.88;100779.34;4131910;28;20017;-67
2023/07/01 00:19:10;;;;;;;;;;;;;;;22.32;44.28;100774.97;4133480;28;20423;-67
2023/07/01 00:21:12;;;;;;;;;;;;;;;22.31;44.11;100770.63;4131804;28;20001;-70
2023/07/01 00:23:14;;;;;;;;;;;;;;;22.32;44.43;100769.59;4132964;28;20013;-67
2023/07/01 00:25:15;;;;;;;;;;;;;;;22.31;44.49;100771.44;4133143;28;19949;-67
2023/07/01 00:27:17;;;;;;;;;;;;;;;22.31;43.64;100766.09;4132853;28;19930;-67
2023/07/01 00:29:18;;;;;;;;;;;;;;;22.30;44.38;100760.88;4132786;28;19925;-67
2023/07/01 00:31:20;;;;;;;;;;;;;;;22.29;44.76;100759.16;4131892;28;19926;-67
2023/07/01 00:33:21;;;;;;;;;;;;;;;22.29;45.02;100760.00;4132702;28;20017;-66
2023/07/01 00:35:23;;;;;;;;;;;;;;;22.29;43.88;100759.16;4132585;28;19972;-66
2023/07/01 00:37:25;;;;;;;;;;;;;;;22.29;44.66;100746.59;4132787;28;19987;-67
2023/07/01 00:39:26;;;;;;;;;;;;;;;22.28;43.61;100744.06;4132681;28;20029;-67
2023/07/01 00:41:28;;;;;;;;;;;;;;;22.27;45.43;100750.41;4131844;28;19996;-68
2023/07/01 00:43:29;;;;;;;;;;;;;;;22.26;44.62;100741.53;4131257;28;20403;-66
2023/07/01 00:45:31;;;;;;;;;;;;;;;22.25;44.24;100737.16;4132364;28;20359;-66
2023/07/01 00:47:32;;;;;;;;;;;;;;;22.27;45.29;100737.88;4100381;29;19927;-67
2023/07/01 00:49:34;;;;;;;;;;;;;;;22.26;45.17;100737.97;4100623;28;19930;-66
2023/07/01 00:51:36;;;;;;;;;;;;;;;22.25;45.33;100737.16;4099092;28;20289;-67
2023/07/01 00:53:39;;;;;;;;;;;;;;;22.23;44.92;100727.53;4100247;28;19930;-67
2023/07/01 00:55:40;;;;;;;;;;;;;;;22.23;45.00;100730.22;4100759;28;20014;-68
2023/07/01 00:57:42;;;;;;;;;;;;;;;22.24;45.38;100724.72;4100592;28;19930;-67
2023/07/01 00:59:44;;;;;;;;;;;;;;;22.24;45.51;100719.38;4100338;28;19930;-67
2023/07/01 01:01:49;;;;;;;;;;;;;;;22.21;46.09;100724.13;4099359;28;19977;-68
2023/07/01 01:04:01;;;;;;;;;;;;;;;22.21;44.84;100718.78;4100506;28;20344;-67
2023/07/01 01:06:06;;;;;;;;;;;;;;;22.21;45.90;100716.09;4099552;28;19937;-67
2023/07/01 01:08:11;;;;;;;;;;;;;;;22.21;44.93;100724.13;4100277;28;19973;-67
2023/07/01 01:10:15;;;;;;;;;;;;;;;22.21;46.08;100713.41;4099091;29;20440;-67
2023/07/01 01:12:19;;;;;;;;;;;;;;;22.20;46.03;100712.59;4099024;28;19930;-67
2023/07/01 01:14:21;;;;;;;;;;;;;;;22.20;46.17;100707.22;4100008;28;19962;-67
2023/07/01 01:16:23;;;;;;;;;;;;;;;22.21;46.04;100714.25;4100031;28;20256;-67
2023/07/01 01:18:28;;;;;;;;;;;;;;;22.20;46.22;100706.38;4100032;28;20025;-67
2023/07/01 01:20:31;;;;;;;;;;;;;;;22.20;45.56;100707.22;4099890;28;20355;-67
2023/07/01 01:22:38;;;;;;;;;;;;;;;22.18;46.58;100696.63;4098993;28;20021;-67
2023/07/01 01:24:57;;;;;;;;;;;;;;;22.17;46.47;100704.78;4100056;28;20110;-67
2023/07/01 01:26:59;;;;;;;;;;;;;;;22.15;46.81;100704.06;4099935;28;19978;-67
2023/07/01 01:29:01;;;;;;;;;;;;;;;22.15;45.95;100698.72;4099800;28;20310;-67
2023/07/01 01:31:03;;;;;;;;;;;;;;;22.14;46.99;100692.53;4099330;28;19949;-68
2023/07/01 01:33:06;;;;;;;;;;;;;;;22.12;47.02;100689.09;4099679;28;19926;-67
2023/07/01 01:35:07;;;;;;;;;;;;;;;22.13;46.05;100690.81;4099771;28;19930;-67
2023/07/01 01:37:32;;;;;;;;;;;;;;;22.14;47.35;100688.97;4099807;28;19981;-68
2023/07/01 01:39:38;;;;;;;;;;;;;;;22.12;47.41;100689.09;4099577;29;19926;-68
2023/07/01 01:42:01;;;;;;;;;;;;;;;22.10;47.50;100684.88;4098851;28;19973;-68
2023/07/01 01:44:07;;;;;;;;;;;;;;;22.09;47.35;100680.50;4099909;28;19930;-67
2023/07/01 01:46:09;;;;;;;;;;;;;;;22.09;47.74;100677.81;4109160;28;19962;-68
2023/07/01 01:48:12;;;;;;;;;;;;;;;22.08;47.66;100681.47;4131229;28;19980;-68
2023/07/01 01:50:16;;;;;;;;;;;;;;;22.08;47.92;100668.94;4131933;28;20295;-67
2023/07/01 01:52:18;;;;;;;;;;;;;;;22.08;47.75;100679.66;4129421;28;20017;-68
2023/07/01 01:54:20;;;;;;;;;;;;;;;22.08;47.69;100665.41;4131711;28;20473;-67
2023/07/01 01:56:23;;;;;;;;;;;;;;;22.08;48.24;100668.94;4131663;28;19926;-67
2023/07/01 01:58:24;;;;;;;;;;;;;;;22.07;47.63;100664.56;4131675;28;19925;-68
2023/07/01 02:00:26;;;;;;;;;;;;;;;22.07;48.03;100669.91;4131591;28;19937;-68
2023/07/01 02:02:28;;;;;;;;;;;;;;;22.06;47.82;100662.84;4130309;28;20396;-68
2023/07/01 02:04:30;;;;;;;;;;;;;;;22.07;48.30;100658.38;4131579;28;19968;-67
2023/07/01 02:06:31;;;;;;;;;;;;;;;22.07;47.64;100664.56;4131581;28;20323;-69
2023/07/01 02:08:33;;;;;;;;;;;;;;;22.06;47.38;100660.19;4131565;28;20389;-68
2023/07/01 02:10:35;;;;;;;;;;;;;;;22.04;47.90;100651.41;4130499;28;19926;-68
2023/07/01 02:12:36;;;;;;;;;;;;;;;22.05;48.33;100652.28;4130436;28;19957;-67
2023/07/01 02:14:38;;;;;;;;;;;;;;;22.02;48.52;100640.84;4131238;28;19929;-68
2023/07/01 02:16:39;;;;;;;;;;;;;;;22.04;48.92;100647.91;4131150;28;20004;-68
2023/07/01 02:18:41;;;;;;;;;;;;;;;22.02;48.69;100632.81;4131014;28;19953;-69
2023/07/01 02:20:43;;;;;;;;;;;;;;;22.04;48.66;100638.03;4131518;28;20404;-68
2023/07/01 02:22:44;;;;;;;;;;;;;;;22.02;48.71;100637.31;4130235;28;20422;-67
2023/07/01 02:24:46;;;;;;;;;;;;;;;22.02;48.94;100631.97;4130237;28;19926;-68
2023/07/01 02:26:50;;;;;;;;;;;;;;;22.00;48.94;100626.72;4129997;28;19952;-68
2023/07/01 02:28:51;;;;;;;;;;;;;;;22.01;48.82;100625.75;4129930;28;20019;-67
2023/07/01 02:30:54;;;;;;;;;;;;;;;22.00;48.71;100628.56;4130016;28;20306;-68
2023/07/01 02:32:55;;;;;;;;;;;;;;;22.00;49.37;100629.41;4129989;28;20297;-68
2023/07/01 02:34:57;;;;;;;;;;;;;;;22.00;48.83;100620.53;4131065;28;19953;-68
2023/07/01 02:36:58;;;;;;;;;;;;;;;21.99;49.24;100622.38;4131104;28;19972;-68
2023/07/01 02:39:00;;;;;;;;;;;;;;;21.99;49.20;100618.81;4130022;28;19925;-68
2023/07/01 02:41:02;;;;;;;;;;;;;;;21.99;48.69;100613.47;4130211;28;19929;-68
2023/07/01 02:43:04;;;;;;;;;;;;;;;21.99;49.22;100610.78;4130101;28;19926;-68
2023/07/01 02:45:05;;;;;;;;;;;;;;;21.99;49.29;100610.78;4131184;28;20298;-68
2023/07/01 02:47:07;;;;;;;;;;;;;;;21.99;49.15;100608.13;4130694;28;19930;-68
2023/07/01 02:49:09;;;;;;;;;;;;;;;21.98;49.52;100603.75;4130790;28;19926;-68
2023/07/01 02:51:10;;;;;;;;;;;;;;;21.97;49.20;100597.53;4131127;28;19932;-68
2023/07/01 02:53:12;;;;;;;;;;;;;;;21.97;49.12;100600.22;4130274;28;19926;-68
2023/07/01 02:55:14;;;;;;;;;;;;;;;21.97;49.45;100596.69;4131176;28;19926;-67
2023/07/01 02:57:15;;;;;;;;;;;;;;;21.98;49.02;100601.94;4131133;28;19925;-68
2023/07/01 02:59:17;;;;;;;;;;;;;;;21.98;49.13;100601.94;4131054;28;19926;-68
2023/07/01 03:01:18;;;;;;;;;;;;;;;21.96;49.42;100598.53;4130406;28;19929;-68
2023/07/01 03:03:20;;;;;;;;;;;;;;;21.97;49.44;100610.94;4130695;28;20303;-69
2023/07/01 03:05:23;;;;;;;;;;;;;;;21.97;49.38;100602.03;4131117;28;19926;-67
2023/07/01 03:07:25;;;;;;;;;;;;;;;21.96;49.54;100606.56;4131100;28;20402;-68
2023/07/01 03:09:26;;;;;;;;;;;;;;;21.98;48.29;100601.06;4130884;28;20323;-68
2023/07/01 03:11:28;;;;;;;;;;;;;;;21.95;49.58;100594.16;4130341;28;20296;-68
2023/07/01 03:13:29;;;;;;;;;;;;;;;21.96;49.17;100595.84;4130950;28;19929;-68
2023/07/01 03:15:31;;;;;;;;;;;;;;;21.96;49.07;100589.66;4130537;28;19936;-68
2023/07/01 03:17:33;;;;;;;;;;;;;;;21.96;49.50;100586.97;4129842;28;19929;-69
2023/07/01 03:19:34;;;;;;;;;;;;;;;21.96;49.62;100579.78;4130880;28;19932;-68
2023/07/01 03:21:36;;;;;;;;;;;;;;;21.98;48.43;100587.66;4130017;28;20024;-68
2023/07/01 03:23:38;;;;;;;;;;;;;;;21.98;48.89;100580.50;4130852;28;20289;-68
2023/07/01 03:25:40;;;;;;;;;;;;;;;21.97;48.85;100576.13;4130827;28;19929;-67
2023/07/01 03:27:42;;;;;;;;;;;;;;;21.97;49.59;100578.81;4130941;28;19929;-68
2023/07/01 03:29:44;;;;;;;;;;;;;;;21.96;49.13;100576.25;4132316;28;20029;-68
2023/07/01 03:31:47;;;;;;;;;;;;;;;21.95;49.61;100586.09;4132775;28;19979;-69
2023/07/01 03:33:49;;;;;;;;;;;;;;;21.96;49.02;100582.47;4133728;28;19930;-68
2023/07/01 03:35:51;;;;;;;;;;;;;;;21.96;49.29;100581.63;4133470;28;19930;-68
2023/07/01 03:37:52;;;;;;;;;;;;;;;21.94;49.99;100581.72;4133739;28;19925;-68
2023/07/01 03:39:54;;;;;;;;;;;;;;;21.93;49.91;100572.00;4133666;28;19933;-68
2023/07/01 03:41:55;;;;;;;;;;;;;;;21.93;49.58;100571.16;4132726;28;20353;-67
2023/07/01 03:43:57;;;;;;;;;;;;;;;21.93;49.86;100572.00;4133198;28;20400;-68
2023/07/01 03:45:58;;;;;;;;;;;;;;;21.92;50.01;100575.69;4133436;28;19948;-68
2023/07/01 03:48:00;;;;;;;;;;;;;;;21.93;49.35;100565.81;4133503;28;19930;-69
2023/07/01 03:50:02;;;;;;;;;;;;;;;21.92;49.96;100564.97;4133293;28;19925;-69
2023/07/01 03:52:04;;;;;;;;;;;;;;;21.92;50.08;100564.97;4132635;28;19930;-68
2023/07/01 03:54:06;;;;;;;;;;;;;;;21.90;50.07;100566.91;4133410;28;19934;-68
2023/07/01 03:56:07;;;;;;;;;;;;;;;21.89;50.26;100554.50;4133514;28;19926;-68
2023/07/01 03:58:09;;;;;;;;;;;;;;;21.90;50.22;100560.72;4133484;28;19936;-67
2023/07/01 04:00:18;;;;;;;;;;;;;;;21.90;50.14;100558.06;4133239;28;19968;-69
2023/07/01 04:02:20;;;;;;;;;;;;;;;21.90;50.71;100552.69;4132182;28;19932;-68
2023/07/01 04:04:21;;;;;;;;;;;;;;;21.89;50.66;100554.50;4133414;28;19932;-69
2023/07/01 04:06:23;;;;;;;;;;;;;;;21.89;49.33;100557.19;4133508;28;20379;-68
2023/07/01 04:08:24;;;;;;;;;;;;;;;21.90;50.51;100550.84;4133434;28;20347;-69
2023/07/01 04:10:26;;;;;;;;;;;;;;;21.75;49.02;100534.31;4133157;28;19933;-69
2023/07/01 04:12:29;;;;;;;;;;;;;;;21.90;50.71;100555.38;4132274;28;19926;-69
2023/07/01 04:14:30;;;;;;;;;;;;;;;21.90;50.48;100547.34;4132988;28;19932;-68
2023/07/01 04:16:32;;;;;;;;;;;;;;;21.88;50.82;100550.13;4133089;28;20403;-68
2023/07/01 04:18:35;;;;;;;;;;;;;;;21.88;50.01;100552.81;4133165;28;19926;-69
2023/07/01 04:20:36;;;;;;;;;;;;;;;21.88;50.30;100546.63;4132819;28;19926;-69
2023/07/01 04:22:38;;;;;;;;;;;;;;;21.85;50.69;100545.91;4131919;28;19926;-68
2023/07/01 04:24:40;;;;;;;;;;;;;;;21.87;50.94;100548.44;4131854;28;19972;-69
2023/07/01 04:26:43;;;;;;;;;;;;;;;21.86;50.76;100538.72;4132914;28;19972;-69
2023/07/01 04:28:45;;;;;;;;;;;;;;;21.85;50.29;100537.88;4132528;28;19925;-68
2023/07/01 04:30:46;;;;;;;;;;;;;;;21.85;50.85;100545.91;4132842;28;20403;-68
2023/07/01 04:32:49;;;;;;;;;;;;;;;21.85;50.77;100539.72;4131953;28;19926;-68
2023/07/01 04:34:50;;;;;;;;;;;;;;;21.85;51.19;100540.53;4132833;28;20410;-68
2023/07/01 04:36:52;;;;;;;;;;;;;;;21.85;51.20;100537.88;4132639;28;20026;-68
2023/07/01 04:38:53;;;;;;;;;;;;;;;21.85;51.21;100545.06;4132700;28;19932;-68
2023/07/01 04:40:55;;;;;;;;;;;;;;;21.85;51.39;100537.88;4131797;28;19996;-68
2023/07/01 04:42:56;;;;;;;;;;;;;;;21.84;51.25;100538.84;4131192;28;19930;-68
2023/07/01 04:44:58;;;;;;;;;;;;;;;21.84;51.07;100532.66;4132513;28;19926;-67
2023/07/01 04:47:00;;;;;;;;;;;;;;;21.84;51.52;100532.66;4132270;28;19983;-68
2023/07/01 04:49:02;;;;;;;;;;;;;;;21.84;51.25;100535.31;4132720;28;19929;-69
2023/07/01 04:51:03;;;;;;;;;;;;;;;21.83;51.34;100534.47;4132633;28;19926;-69
2023/07/01 04:53:05;;;;;;;;;;;;;;;21.84;50.97;100528.13;4131591;28;19964;-68
2023/07/01 04:55:06;;;;;;;;;;;;;;;21.83;51.68;100526.44;4132580;28;19933;-69
2023/07/01 04:57:08;;;;;;;;;;;;;;;21.83;51.21;100528.28;4132310;28;20546;-68
2023/07/01 04:59:09;;;;;;;;;;;;;;;21.83;51.47;100528.28;4132394;28;19952;-68
2023/07/01 05:01:11;;;;;;;;;;;;;;;21.83;51.59;100528.28;4131233;28;20320;-68
2023/07/01 05:03:13;;;;;;;;;;;;;;;21.83;51.71;100518.41;4131218;28;19925;-68
2023/07/01 05:05:14;;;;;;;;;;;;;;;21.83;51.54;100523.75;4132467;28;19933;-69
2023/07/01 05:07:17;;;;;;;;;;;;;;;21.83;51.63;100518.41;4131030;28;19926;-69
2023/07/01 05:09:19;;;;;;;;;;;;;;;21.84;51.52;100521.94;4132171;28;19932;-68
2023/07/01 05:11:20;;;;;;;;;;;;;;;21.83;51.53;100523.75;4131760;28;19929;-68
2023/07/01 05:13:22;;;;;;;;;;;;;;;21.82;51.90;100522.09;4131110;28;19926;-69
2023/07/01 05:15:23;;;;;;;;;;;;;;;21.83;51.59;100531.78;4132244;28;19936;-68
2023/07/01 05:17:25;;;;;;;;;;;;;;;21.82;51.33;100529.25;4131937;28;19930;-68
2023/07/01 05:19:26;;;;;;;;;;;;;;;21.83;51.00;100520.25;4131953;28;19936;-68
2023/07/01 05:21:31;;;;;;;;;;;;;;;21.83;51.80;100520.25;4131942;28;19926;-69
2023/07/01 05:23:33;;;;;;;;;;;;;;;21.83;51.45;100514.88;4131163;28;19930;-69
2023/07/01 05:25:34;;;;;;;;;;;;;;;21.82;51.52;100519.41;4131757;28;19926;-68
2023/07/01 05:27:36;;;;;;;;;;;;;;;21.81;51.80;100515.03;4130714;28;20387;-70
2023/07/01 05:29:37;;;;;;;;;;;;;;;21.83;50.59;100517.56;4131912;28;19926;-70
2023/07/01 05:31:39;;;;;;;;;;;;;;;21.84;51.32;100514.75;4132052;28;19925;-68
2023/07/01 05:33:45;;;;;;;;;;;;;;;21.97;50.62;100511.84;4130740;28;20003;-71
2023/07/01 05:35:46;;;;;;;;;;;;;;;22.08;50.31;100510.91;4132103;28;20298;-69
2023/07/01 05:37:48;;;;;;;;;;;;;;;22.16;51.17;100511.09;4131934;28;19926;-72
2023/07/01 05:39:50;;;;;;;;;;;;;;;22.22;52.19;100515.06;4131429;28;19933;-65
2023/07/01 05:41:56;;;;;;;;;;;;;;;22.25;52.24;100514.78;4131027;28;20348;-65
2023/07/01 05:44:02;;;;;;;;;;;;;;;22.29;52.47;100518.88;4131703;28;19925;-65
2023/07/01 05:46:05;;;;;;;;;;;;;;;22.32;52.29;100512.41;4131634;28;19926;-66
2023/07/01 05:48:07;;;;;;;;;;;;;;;22.25;53.27;100521.97;4130328;28;19930;-66
2023/07/01 05:50:09;;;;;;;;;;;;;;;22.21;53.84;100517.88;4131542;28;20001;-66
2023/07/01 05:52:10;;;;;;;;;;;;;;;22.16;54.01;100512.91;4130705;28;20295;-66
2023/07/01 05:54:17;;;;;;;;;;;;;;;22.13;53.91;100515.88;4131313;28;20439;-65
2023/07/01 05:56:18;;;;;;;;;;;;;;;22.10;54.21;100508.09;4131656;28;19984;-66
2023/07/01 05:58:20;;;;;;;;;;;;;;;22.07;54.28;100508.38;4131610;28;19926;-66
2023/07/01 06:00:22;;;;;;;;;;;;;;;22.06;53.77;100510.19;4131591;28;19930;-66
2023/07/01 06:02:23;;;;;;;;;;;;;;;22.04;53.90;100514.84;4130561;28;20388;-66
2023/07/01 06:04:25;;;;;;;;;;;;;;;22.03;53.57;100515.84;4131383;28;19925;-66
2023/07/01 06:06:31;;;;;;;;;;;;;;;22.01;53.54;100517.78;4130514;28;19929;-66
2023/07/01 06:08:33;;;;;;;;;;;;;;;22.01;53.35;100515.94;4131530;28;19949;-67
2023/07/01 06:10:34;;;;;;;;;;;;;;;21.99;53.72;100514.41;4130917;28;20029;-66
2023/07/01 06:12:36;;;;;;;;;;;;;;;21.98;53.28;100518.06;4130310;28;19980;-66
2023/07/01 06:14:37;;;;;;;;;;;;;;;21.97;53.25;100514.53;4131393;28;19949;-66
2023/07/01 06:16:44;;;;;;;;;;;;;;;21.95;53.13;100515.66;4131293;28;19930;-66
2023/07/01 06:18:50;;;;;;;;;;;;;;;21.94;53.13;100517.47;4131225;28;20017;-65
2023/07/01 06:20:52;;;;;;;;;;;;;;;21.94;53.09;100512.13;4131241;28;19930;-66
2023/07/01 06:22:53;;;;;;;;;;;;;;;21.93;53.38;100512.25;4130103;28;19926;-67
2023/07/01 06:24:55;;;;;;;;;;;;;;;21.92;53.16;100508.75;4131112;28;19932;-66
2023/07/01 06:26:56;;;;;;;;;;;;;;;21.94;53.52;100505.91;4131451;28;19926;-66
2023/07/01 06:29:03;;;;;;;;;;;;;;;21.91;53.26;100501.69;4131066;28;19926;-65
2023/07/01 06:31:10;;;;;;;;;;;;;;;21.92;53.04;100502.53;4131179;28;20016;-66
2023/07/01 06:33:11;;;;;;;;;;;;;;;21.91;53.21;100501.69;4130147;28;19930;-65
2023/07/01 06:35:13;;;;;;;;;;;;;;;21.92;53.25;100499.84;4131178;28;19929;-66
2023/07/01 06:37:14;;;;;;;;;;;;;;;21.91;53.39;100498.16;4131173;28;20049;-65
2023/07/01 06:39:20;;;;;;;;;;;;;;;21.90;53.04;100497.31;4131003;28;19926;-65
2023/07/01 06:41:22;;;;;;;;;;;;;;;21.90;53.07;100496.47;4131040;28;20022;-65
2023/07/01 06:43:24;;;;;;;;;;;;;;;21.91;53.03;100507.03;4129978;28;19930;-65
2023/07/01 06:45:25;;;;;;;;;;;;;;;21.90;53.16;100491.13;4131208;28;19925;-66
2023/07/01 06:47:27;;;;;;;;;;;;;;;21.91;53.52;100499.00;4130839;28;20009;-66
2023/07/01 06:49:28;;;;;;;;;;;;;;;21.91;53.09;100493.66;4131048;28;19934;-66
2023/07/01 06:51:30;;;;;;;;;;;;;;;21.91;53.29;100498.16;4131009;28;19926;-66
2023/07/01 06:53:39;;;;;;;;;;;;;;;21.90;53.56;100496.47;4129923;28;19926;-66
2023/07/01 06:55:41;;;;;;;;;;;;;;;21.91;53.54;100495.47;4130997;28;19926;-66
2023/07/01 06:57:43;;;;;;;;;;;;;;;21.90;53.27;100491.13;4130886;28;19925;-65
2023/07/01 06:59:44;;;;;;;;;;;;;;;21.91;53.53;100500.81;4131233;28;20431;-66
2023/07/01 07:01:46;;;;;;;;;;;;;;;21.90;53.31;100497.31;4131057;28;20021;-65
2023/07/01 07:03:47;;;;;;;;;;;;;;;21.91;53.29;100503.50;4130760;28;20388;-65
2023/07/01 07:05:52;;;;;;;;;;;;;;;21.91;53.35;100504.38;4134238;28;20372;-65
2023/07/01 07:07:53;;;;;;;;;;;;;;;21.91;53.69;100504.38;4133771;28;20044;-66
2023/07/01 07:09:55;;;;;;;;;;;;;;;21.92;53.42;100502.53;4134131;28;20375;-66
2023/07/01 07:11:56;;;;;;;;;;;;;;;21.90;53.35;100505.34;4134019;28;20072;-65
2023/07/01 07:13:58;;;;;;;;;;;;;;;21.92;53.61;100503.38;4133101;28;19933;-65
2023/07/01 07:15:59;;;;;;;;;;;;;;;21.91;53.39;100500.81;4134121;28;19980;-65
2023/07/01 07:18:01;;;;;;;;;;;;;;;21.90;53.39;100494.63;4133982;28;19948;-65
2023/07/01 07:20:03;;;;;;;;;;;;;;;21.90;53.41;100500.00;4132696;28;20431;-66
2023/07/01 07:22:05;;;;;;;;;;;;;;;21.90;53.31;100504.50;4133638;28;20366;-66
2023/07/01 07:24:07;;;;;;;;;;;;;;;21.91;53.61;100495.47;4133005;28;20339;-64
2023/07/01 07:26:08;;;;;;;;;;;;;;;21.91;53.20;100503.50;4134089;28;20407;-64
2023/07/01 07:28:10;;;;;;;;;;;;;;;21.91;53.53;100507.03;4133905;28;19969;-64
2023/07/01 07:30:13;;;;;;;;;;;;;;;21.91;53.34;100507.03;4133606;28;20455;-65
2023/07/01 07:32:14;;;;;;;;;;;;;;;21.92;53.19;100506.06;4133409;28;19953;-64
2023/07/01 07:34:16;;;;;;;;;;;;;;;21.93;53.19;100504.22;4133506;28;19953;-63
2023/07/01 07:36:18;;;;;;;;;;;;;;;21.92;53.31;100500.72;4133289;28;19933;-64
2023/07/01 07:38:19;;;;;;;;;;;;;;;21.93;53.29;100505.06;4133599;28;20021;-64
2023/07/01 07:40:20;;;;;;;;;;;;;;;21.91;53.48;100499.00;4133473;28;19926;-65
2023/07/01 07:42:22;;;;;;;;;;;;;;;21.94;53.43;100504.06;4132805;28;20016;-64
2023/07/01 07:44:24;;;;;;;;;;;;;;;21.93;53.26;100499.69;4133567;28;19957;-65
2023/07/01 07:46:26;;;;;;;;;;;;;;;21.92;53.10;100498.03;4132949;28;19926;-64
2023/07/01 07:48:27;;;;;;;;;;;;;;;21.94;53.18;100501.41;4132336;28;19926;-64
2023/07/01 07:50:29;;;;;;;;;;;;;;;21.93;53.27;100493.50;4132107;28;20029;-65
2023/07/01 07:52:30;;;;;;;;;;;;;;;21.93;53.33;100496.19;4131681;28;19933;-64
2023/07/01 07:54:32;;;;;;;;;;;;;;;21.94;53.43;100498.72;4132509;28;19926;-65
2023/07/01 07:56:33;;;;;;;;;;;;;;;21.93;53.39;100496.19;4132748;28;19926;-65
2023/07/01 07:58:35;;;;;;;;;;;;;;;21.93;53.34;100489.00;4131414;28;20287;-65
2023/07/01 08:00:41;;;;;;;;;;;;;;;21.94;53.33;100488.00;4132432;28;20036;-65
2023/07/01 08:02:46;;;;;;;;;;;;;;;21.93;53.27;100489.00;4131395;28;20502;-64
2023/07/01 08:04:47;;;;;;;;;;;;;;;21.93;53.28;100486.31;4132039;28;19933;-67
2023/07/01 08:06:49;;;;;;;;;;;;;;;21.93;53.68;100486.31;4132254;28;20012;-66
2023/07/01 08:08:51;;;;;;;;;;;;;;;21.93;53.26;100486.31;4132400;28;19926;-66
2023/07/01 08:10:53;;;;;;;;;;;;;;;21.95;53.32;100483.53;4131941;28;19934;-66
2023/07/01 08:12:54;;;;;;;;;;;;;;;21.94;53.49;100479.97;4131600;28;20343;-64
2023/07/01 08:14:56;;;;;;;;;;;;;;;21.96;53.56;100479.88;4132177;28;19933;-65
2023/07/01 08:17:00;;;;;;;;;;;;;;;21.96;53.36;100487.91;4132198;28;19926;-65
2023/07/01 08:19:02;;;;;;;;;;;;;;;21.97;53.55;100485.09;4132138;28;19926;-64
2023/07/01 08:21:04;;;;;;;;;;;;;;;21.96;53.65;100486.06;4131757;28;19926;-65
2023/07/01 08:23:05;;;;;;;;;;;;;;;21.97;53.56;100489.56;4131063;28;20043;-64
2023/07/01 08:25:07;;;;;;;;;;;;;;;21.99;53.37;100482.25;4131551;28;19932;-65
2023/07/01 08:27:13;;;;;;;;;;;;;;;21.99;53.41;100496.50;4132350;28;20391;-66
2023/07/01 08:29:15;;;;;;;;;;;;;;;21.99;53.17;100501.00;4132172;28;19932;-65
2023/07/01 08:31:17;;;;;;;;;;;;;;;21.99;53.47;100522.44;4131856;28;19980;-64
2023/07/01 08:33:18;;;;;;;;;;;;;;;21.99;53.25;100538.50;4131142;28;19926;-65
2023/07/01 08:35:20;;;;;;;;;;;;;;;21.97;53.60;100525.25;4131592;28;20021;-66
2023/07/01 08:37:21;;;;;;;;;;;;;;;21.98;54.11;100524.28;4131932;28;19933;-67
2023/07/01 08:39:24;;;;;;;;;;;;;;;22.02;53.98;100522.16;4128901;28;19934;-65
2023/07/01 08:41:27;;;;;;;;;;;;;;;22.02;54.18;100522.16;4125683;28;20487;-67
2023/07/01 08:43:30;;;;;;;;;;;;;;;22.04;54.10;100528.22;4125060;28;20024;-68
2023/07/01 08:45:32;;;;;;;;;;;;;;;22.07;54.22;100524.47;4123303;28;20061;-66
2023/07/01 08:47:49;;;;;;;;;;;;;;;22.07;54.08;100514.56;4227740;27;19916;-69
2023/07/01 08:49:53;;;;;;;;;;;;;;;22.09;54.77;100517.97;4219028;28;19928;-69
2023/07/01 08:52:04;;;;;;;;;;;;;;;22.12;55.13;100523.03;4218330;28;19924;-68
2023/07/01 08:54:06;;;;;;;;;;;;;;;22.15;54.99;100519.25;4210035;28;19935;-66
2023/07/01 08:56:08;;;;;;;;;;;;;;;22.17;55.18;100520.81;4210884;28;20023;-66
2023/07/01 08:58:10;;;;;;;;;;;;;;;22.22;55.58;100515.06;4213378;28;19931;-66
2023/07/01 09:00:15;;;;;;;;;;;;;;;22.27;55.78;100509.28;4210609;28;19935;-67
2023/07/01 09:02:16;;;;;;;;;;;;;;;22.29;55.62;100502.81;4210598;28;20382;-68
2023/07/01 09:04:23;;;;;;;;;;;;;;;22.34;56.14;100505.09;4208966;28;19928;-67
2023/07/01 09:06:25;;;;;;;;;;;;;;;22.38;55.55;100503.84;4210598;28;20360;-66
2023/07/01 09:08:26;;;;;;;;;;;;;;;22.41;55.38;100506.25;4210488;28;19928;-66
2023/07/01 09:10:28;;;;;;;;;;;;;;;22.45;55.17;100501.47;4210897;28;20305;-66
2023/07/01 09:12:29;;;;;;;;;;;;;;;22.37;55.46;100480.72;4210481;28;20344;-66
2023/07/01 09:14:49;;;;;;;;;;;;;;;22.48;55.59;100507.41;4209660;28;19924;-66
2023/07/01 09:16:51;;;;;;;;;;;;;;;22.52;55.18;100502.63;4195241;28;19924;-66
2023/07/01 09:19:02;;;;;;;;;;;;;;;22.52;55.64;100505.31;4206828;28;19970;-67
2023/07/01 09:21:15;;;;;;;;;;;;;;;22.54;55.77;100499.81;4206010;28;19966;-67
2023/07/01 09:23:39;;;;;;;;;;;;;;;22.55;55.27;100496.97;4206035;28;20026;-67
2023/07/01 09:25:41;;;;;;;;;;;;;;;22.57;55.43;100502.22;4209373;28;19928;-69
2023/07/01 09:27:47;;;;;;;;;;;;;;;22.58;55.13;100494.03;4203522;28;20432;-67
2023/07/01 09:29:48;;;;;;;;;;;;;;;22.58;55.07;100502.06;4207021;28;20324;-66
2023/07/01 09:31:51;;;;;;;;;;;;;;;22.59;55.04;100495.72;4207679;28;19954;-70
2023/07/01 09:34:03;;;;;;;;;;;;;;;22.58;54.97;100491.34;4207696;28;19968;-67
2023/07/01 09:36:05;;;;;;;;;;;;;;;22.53;54.97;100493.59;4208539;28;19935;-68
2023/07/01 09:38:07;;;;;;;;;;;;;;;22.46;54.42;100504.00;4209965;28;19970;-70
2023/07/01 09:40:18;;;;;;;;;;;;;;;22.41;55.28;100508.09;4210161;28;19931;-69
2023/07/01 09:42:19;;;;;;;;;;;;;;;22.33;55.07;100520.31;4210180;28;19925;-69
2023/07/01 09:44:21;;;;;;;;;;;;;;;22.30;55.10;100512.53;4209039;28;19929;-68
2023/07/01 09:46:23;;;;;;;;;;;;;;;22.26;54.71;100508.47;4209309;28;20291;-67
2023/07/01 09:48:25;;;;;;;;;;;;;;;22.18;54.85;100497.56;4209804;28;19942;-69
2023/07/01 09:50:29;;;;;;;;;;;;;;;22.26;54.72;100510.28;4210074;28;20365;-67
2023/07/01 09:52:31;;;;;;;;;;;;;;;22.27;54.26;100510.16;4209956;28;19925;-69
2023/07/01 09:54:33;;;;;;;;;;;;;;;22.26;54.41;100508.47;4210610;28;19970;-70
2023/07/01 09:56:34;;;;;;;;;;;;;;;22.25;53.78;100503.22;4212385;28;19925;-68
2023/07/01 09:58:41;;;;;;;;;;;;;;;22.22;53.61;100504.34;4201450;28;19960;-67
2023/07/01 10:00:44;;;;;;;;;;;;;;;22.18;54.37;100506.44;4187242;28;20011;-67
2023/07/01 10:02:47;;;;;;;;;;;;;;;22.18;53.75;100502.91;4198153;28;19956;-68
2023/07/01 10:04:53;;;;;;;;;;;;;;;22.18;53.55;100495.72;4198022;28;19924;-67
2023/07/01 10:06:55;;;;;;;;;;;;;;;22.21;53.54;100499.97;4196435;28;19931;-66
2023/07/01 10:09:02;;;;;;;;;;;;;;;22.23;53.48;100497.16;4198698;28;19960;-66
2023/07/01 10:11:14;;;;;;;;;;;;;;;22.23;53.61;100500.69;4198580;28;19931;-65
2023/07/01 10:13:16;;;;;;;;;;;;;;;22.24;53.64;100499.69;4197961;28;19948;-68
2023/07/01 10:15:23;;;;;;;;;;;;;;;22.27;53.51;100502.13;4198136;28;19928;-66
2023/07/01 10:17:43;;;;;;;;;;;;;;;22.27;53.87;100502.13;4198075;28;19928;-67
2023/07/01 10:19:46;;;;;;;;;;;;;;;22.26;54.07;100497.75;4198405;28;20275;-67
2023/07/01 10:21:48;;;;;;;;;;;;;;;22.23;54.06;100494.47;4195928;28;19932;-70
2023/07/01 10:23:50;;;;;;;;;;;;;;;22.21;53.67;100496.44;4194022;28;19977;-70
2023/07/01 10:25:52;;;;;;;;;;;;;;;22.23;53.46;100495.31;4198210;28;19970;-72
2023/07/01 10:27:59;;;;;;;;;;;;;;;22.24;53.85;100501.53;4198031;28;20384;-71
2023/07/01 10:30:01;;;;;;;;;;;;;;;22.24;53.37;100502.38;4179560;28;20015;-72